KSTJ/STJ METAR and TAF weather

Enter ICAO airport designator
Station Type Date Time Source
KSTJ METAR 2022/06/27 17:53 UTC NOAA

KSTJ 271753Z 02005KT 10SM CLR 26/09 A3034 RMK AO2 SLP269 T02560089 10261 20133 58004


Station Type Date Time Source
KSTJ Decoded METAR 2022/06/27 17:53 UTC NOAA

ROSECRANS MEMORIAL AIRPORT, MO, United States (KSTJ) 39-46N 94-55W 247M
Jun 27, 2022 - 01:53 PM EDT / 2022.06.27 1753 UTC
Wind: from the NNE (020 degrees) at 6 MPH (5 KT):0
Visibility: 10 mile(s):0
Sky conditions: clear
Temperature: 78.1 F (25.6 C)
Dew Point: 48.0 F (8.9 C)
Relative Humidity: 34%
Pressure (altimeter): 30.34 in. Hg (1027 hPa)
Pressure tendency: 0.01 inches (0.4 hPa) lower than three hours ago
ob: KSTJ 271753Z 02005KT 10SM CLR 26/09 A3034 RMK AO2 SLP269 T02560089 10261 20133 58004
cycle: 18

Station Type Date Time Source
KSTJ TAF 2022/06/27 18:22 UTC NOAA

TAF KSTJ 271720Z 2718/2818 13006KT P6SM SCT250

Example: see airport list